createdAt,value
2023-04-13T00:00:48.906Z,2.33
2023-04-13T00:03:17.812Z,2.50
2023-04-13T00:05:46.559Z,2.53
2023-04-13T00:08:13.937Z,1.30
2023-04-13T00:10:41.736Z,2.90
2023-04-13T00:13:10.389Z,3.43
2023-04-13T00:15:43.074Z,1.50
2023-04-13T00:18:10.779Z,2.63
2023-04-13T00:20:38.848Z,4.30
2023-04-13T00:23:05.729Z,2.60
2023-04-13T00:25:32.828Z,3.23
2023-04-13T00:28:03.373Z,2.07
2023-04-13T00:30:30.308Z,3.40
2023-04-13T00:32:57.138Z,2.37
2023-04-13T00:35:25.103Z,1.57
2023-04-13T00:37:52.864Z,3.13
2023-04-13T00:40:19.789Z,3.53
2023-04-13T00:42:48.337Z,2.73
2023-04-13T00:45:16.117Z,4.47
2023-04-13T00:47:48.244Z,1.90
2023-04-13T00:50:18.572Z,3.27
2023-04-13T00:52:46.473Z,4.70
2023-04-13T00:55:14.618Z,3.37
2023-04-13T00:57:41.971Z,2.30
2023-04-13T01:00:09.781Z,3.37
2023-04-13T01:02:42.323Z,2.07
2023-04-13T01:05:12.699Z,2.73
2023-04-13T01:08:01.684Z,3.63
2023-04-13T01:10:56.736Z,2.83
2023-04-13T01:13:26.280Z,3.37
2023-04-13T01:16:07.259Z,3.50
2023-04-13T01:18:38.349Z,3.97
2023-04-13T01:21:07.396Z,2.90
2023-04-13T01:23:50.865Z,3.03
2023-04-13T01:26:17.681Z,2.27
2023-04-13T01:28:46.923Z,2.53
2023-04-13T01:31:14.463Z,3.97
2023-04-13T01:33:42.089Z,5.47
2023-04-13T01:36:11.259Z,3.80
2023-04-13T01:38:38.007Z,3.60
2023-04-13T01:41:05.130Z,2.33
2023-04-13T01:43:32.397Z,1.87
2023-04-13T01:46:08.133Z,3.10
2023-04-13T01:48:45.403Z,1.57
2023-04-13T01:51:19.982Z,2.00
2023-04-13T01:54:02.131Z,2.37
2023-04-13T01:56:29.465Z,3.73
2023-04-13T01:58:58.696Z,2.70
2023-04-13T02:01:26.713Z,2.53
2023-04-13T02:03:53.960Z,3.23
2023-04-13T02:06:21.267Z,3.63
2023-04-13T02:08:50.051Z,1.67
2023-04-13T02:11:18.265Z,3.97
2023-04-13T02:13:45.400Z,3.73
2023-04-13T02:16:12.098Z,3.37
2023-04-13T02:18:38.823Z,1.57
2023-04-13T02:21:12.171Z,2.73
2023-04-13T02:23:41.222Z,1.97
2023-04-13T02:26:09.389Z,3.10
2023-04-13T02:28:36.421Z,1.57
2023-04-13T02:31:03.746Z,1.97
2023-04-13T02:33:31.594Z,2.73
2023-04-13T02:36:05.065Z,3.07
2023-04-13T02:38:32.364Z,1.93
2023-04-13T02:41:00.561Z,3.03
2023-04-13T02:43:27.782Z,4.23
2023-04-13T02:45:55.024Z,2.07
2023-04-13T02:48:21.884Z,1.60
2023-04-13T02:50:49.051Z,2.23
2023-04-13T02:53:17.084Z,2.67
2023-04-13T02:55:43.868Z,2.40
2023-04-13T02:58:12.213Z,4.37
2023-04-13T03:00:39.774Z,3.40
2023-04-13T03:03:06.924Z,2.13
2023-04-13T03:05:34.293Z,2.17
2023-04-13T03:08:02.370Z,2.43
2023-04-13T03:10:31.692Z,2.20
2023-04-13T03:12:58.771Z,3.00
2023-04-13T03:15:25.920Z,2.77
2023-04-13T03:17:53.111Z,1.73
2023-04-13T03:20:23.375Z,1.90
2023-04-13T03:22:51.618Z,1.80
2023-04-13T03:25:18.340Z,0.90
2023-04-13T03:27:45.098Z,3.73
2023-04-13T03:30:12.117Z,3.03
2023-04-13T03:32:38.903Z,1.63
2023-04-13T03:35:06.592Z,2.30
2023-04-13T03:37:40.208Z,1.70
2023-04-13T03:40:10.461Z,2.70
2023-04-13T03:42:37.724Z,2.33
2023-04-13T03:45:06.000Z,1.73
2023-04-13T03:47:33.626Z,2.60
2023-04-13T03:50:00.893Z,2.40
2023-04-13T03:52:28.096Z,2.53
2023-04-13T03:54:55.328Z,1.53
2023-04-13T03:57:22.788Z,1.87
2023-04-13T03:59:49.923Z,3.10
2023-04-13T04:02:16.933Z,3.40
2023-04-13T04:04:44.223Z,2.37
2023-04-13T04:07:11.558Z,2.80
2023-04-13T04:09:39.114Z,1.40
2023-04-13T04:12:06.254Z,2.43
2023-04-13T04:14:33.349Z,4.50
2023-04-13T04:17:00.717Z,3.00
2023-04-13T04:19:27.426Z,3.33
2023-04-13T04:21:57.685Z,1.33
2023-04-13T04:24:27.503Z,2.47
2023-04-13T04:26:56.064Z,2.03
2023-04-13T04:29:29.841Z,2.03
2023-04-13T04:31:57.055Z,1.73
2023-04-13T04:34:24.204Z,1.90
2023-04-13T04:36:52.527Z,5.30
2023-04-13T04:39:22.678Z,2.97
2023-04-13T04:41:54.177Z,2.67
2023-04-13T04:44:25.345Z,3.70
2023-04-13T04:46:52.880Z,2.93
2023-04-13T04:49:21.542Z,2.10
2023-04-13T04:51:53.026Z,2.07
2023-04-13T04:54:20.170Z,3.87
2023-04-13T04:56:51.262Z,1.80
2023-04-13T04:59:19.721Z,2.73
2023-04-13T05:01:46.823Z,3.20
2023-04-13T05:04:14.362Z,3.43
2023-04-13T05:06:41.474Z,2.00
2023-04-13T05:09:11.695Z,2.27
2023-04-13T05:11:39.118Z,2.77
2023-04-13T05:14:05.952Z,3.67
2023-04-13T05:16:34.230Z,2.10
2023-04-13T05:19:01.748Z,1.73
2023-04-13T05:21:29.164Z,1.40
2023-04-13T05:23:56.958Z,1.30
2023-04-13T05:26:25.424Z,2.40
2023-04-13T05:28:52.455Z,2.77
2023-04-13T05:31:20.279Z,1.73
2023-04-13T05:33:47.933Z,1.87
2023-04-13T05:36:15.011Z,1.43
2023-04-13T05:38:42.303Z,2.20
2023-04-13T05:41:10.365Z,1.30
2023-04-13T05:43:37.266Z,1.60
2023-04-13T05:46:04.443Z,1.70
2023-04-13T05:48:34.145Z,1.20
2023-04-13T05:51:03.841Z,1.10
2023-04-13T05:53:30.960Z,3.00
2023-04-13T05:55:58.505Z,1.10
2023-04-13T05:58:26.375Z,1.70
2023-04-13T06:00:54.028Z,1.10
2023-04-13T06:03:21.042Z,2.63
2023-04-13T06:05:48.426Z,1.33
2023-04-13T06:08:15.223Z,2.40
2023-04-13T06:10:44.342Z,3.37
2023-04-13T06:13:11.132Z,3.43
2023-04-13T06:15:38.862Z,2.83
2023-04-13T06:18:05.984Z,3.80
2023-04-13T06:20:33.558Z,1.47
2023-04-13T06:23:00.251Z,3.10
2023-04-13T06:25:27.130Z,2.57
2023-04-13T06:27:54.429Z,2.50
2023-04-13T06:30:21.691Z,3.77
2023-04-13T06:32:48.409Z,1.73
2023-04-13T06:35:17.340Z,1.20
2023-04-13T06:37:44.105Z,2.23
2023-04-13T06:40:12.466Z,2.57
2023-04-13T06:42:41.035Z,3.70
2023-04-13T06:45:09.224Z,1.00
2023-04-13T06:47:37.138Z,1.00
2023-04-13T06:50:06.548Z,1.70
2023-04-13T06:52:37.306Z,2.27
2023-04-13T06:55:06.211Z,2.03
2023-04-13T06:57:33.836Z,1.97
2023-04-13T07:00:00.800Z,1.40
2023-04-13T07:02:27.681Z,1.20
2023-04-13T07:04:54.625Z,1.10
2023-04-13T07:07:21.701Z,1.30
2023-04-13T07:09:48.377Z,1.07
2023-04-13T07:12:15.239Z,1.23
2023-04-13T07:14:42.469Z,2.33
2023-04-13T07:17:11.953Z,1.57
2023-04-13T07:19:45.894Z,1.30
2023-04-13T07:22:12.583Z,2.07
2023-04-13T07:24:39.307Z,2.47
2023-04-13T07:27:06.610Z,2.73
2023-04-13T07:29:33.361Z,1.57
2023-04-13T07:32:06.128Z,1.97
2023-04-13T07:34:33.068Z,2.60
2023-04-13T07:36:59.713Z,1.70
2023-04-13T07:39:26.987Z,3.50
2023-04-13T07:41:53.647Z,1.97
2023-04-13T07:44:20.326Z,2.23
2023-04-13T07:46:47.113Z,1.77
2023-04-13T07:49:13.902Z,1.40
2023-04-13T07:51:40.772Z,1.30
2023-04-13T07:54:07.502Z,3.20
2023-04-13T07:56:36.091Z,1.80
2023-04-13T07:59:02.874Z,2.00
2023-04-13T08:01:29.807Z,1.20
2023-04-13T08:03:56.988Z,1.50
2023-04-13T08:06:23.847Z,1.30
2023-04-13T08:08:50.558Z,1.20
2023-04-13T08:11:17.410Z,1.33
2023-04-13T08:13:44.162Z,2.83
2023-04-13T08:16:11.254Z,2.13
2023-04-13T08:18:38.392Z,3.80
2023-04-13T08:21:12.654Z,4.37
2023-04-13T08:23:43.010Z,2.97
2023-04-13T08:26:20.519Z,3.50
2023-04-13T08:28:48.421Z,5.07
2023-04-13T08:31:15.857Z,6.57
2023-04-13T08:33:43.614Z,5.43
2023-04-13T08:36:10.538Z,5.57
2023-04-13T08:38:37.258Z,6.90
2023-04-13T08:41:04.335Z,3.97
2023-04-13T08:43:33.895Z,4.03
2023-04-13T08:46:00.687Z,7.20
2023-04-13T08:48:38.968Z,5.53
2023-04-13T08:51:16.915Z,4.50
2023-04-13T08:53:43.647Z,5.70
2023-04-13T08:56:10.817Z,5.00
2023-04-13T08:58:42.835Z,5.67
2023-04-13T09:01:13.647Z,9.53
2023-04-13T09:03:54.727Z,3.70
2023-04-13T09:06:33.197Z,5.70
2023-04-13T09:09:03.353Z,6.90
2023-04-13T09:11:30.037Z,6.30
2023-04-13T09:13:57.253Z,5.43
2023-04-13T09:16:24.343Z,7.73
2023-04-13T09:18:51.063Z,8.73
2023-04-13T09:21:18.153Z,5.73
2023-04-13T09:23:58.416Z,5.37
2023-04-13T09:26:26.046Z,8.53
2023-04-13T09:28:56.370Z,6.00
2023-04-13T09:31:23.419Z,7.40
2023-04-13T09:33:52.972Z,8.23
2023-04-13T09:36:21.506Z,6.77
2023-04-13T09:38:56.120Z,8.97
2023-04-13T09:41:31.880Z,7.07
2023-04-13T09:44:02.836Z,7.80
2023-04-13T09:46:29.591Z,10.10
2023-04-13T09:49:02.589Z,5.97
2023-04-13T09:51:40.486Z,6.97
2023-04-13T09:54:07.936Z,7.67
2023-04-13T09:56:48.268Z,7.60
2023-04-13T09:59:16.143Z,12.47
2023-04-13T10:01:43.924Z,11.33
2023-04-13T10:04:10.985Z,6.07
2023-04-13T10:06:40.115Z,11.87
2023-04-13T10:09:07.949Z,7.37
2023-04-13T10:11:39.523Z,6.37
2023-04-13T10:14:11.688Z,11.27
2023-04-13T10:16:44.399Z,8.87
2023-04-13T10:19:16.635Z,7.07
2023-04-13T10:21:45.790Z,7.57
2023-04-13T10:24:13.570Z,6.37
2023-04-13T10:26:41.982Z,6.77
2023-04-13T10:29:10.138Z,8.20
2023-04-13T10:31:47.644Z,8.23
2023-04-13T10:34:31.406Z,9.13
2023-04-13T10:37:02.758Z,6.47
2023-04-13T10:39:32.086Z,8.37
2023-04-13T10:42:07.663Z,4.53
2023-04-13T10:44:51.055Z,11.53
2023-04-13T10:47:22.943Z,9.37
2023-04-13T10:49:52.247Z,6.93
2023-04-13T10:52:19.068Z,6.80
2023-04-13T10:54:45.856Z,9.07
2023-04-13T10:57:13.212Z,10.23
2023-04-13T10:59:57.133Z,5.70
2023-04-13T11:02:30.140Z,7.50
2023-04-13T11:04:57.334Z,7.50
2023-04-13T11:07:25.870Z,9.53
2023-04-13T11:12:28.171Z,8.63
2023-04-13T11:14:54.793Z,8.63
2023-04-13T11:17:21.690Z,6.77
2023-04-13T11:19:50.553Z,8.50
2023-04-13T11:22:19.005Z,9.43
2023-04-13T11:24:47.542Z,6.87
2023-04-13T11:27:20.193Z,8.07
2023-04-13T11:29:56.706Z,8.50
2023-04-13T11:32:24.071Z,8.00
2023-04-13T11:34:51.365Z,7.67
2023-04-13T11:37:19.407Z,8.93
2023-04-13T11:39:46.428Z,10.47
2023-04-13T11:42:13.449Z,8.50
2023-04-13T11:44:40.352Z,11.43
2023-04-13T11:47:08.896Z,9.20
2023-04-13T11:49:36.042Z,11.43
2023-04-13T11:52:03.271Z,12.50
2023-04-13T11:54:30.889Z,7.63
2023-04-13T11:56:57.888Z,6.97
2023-04-13T11:59:25.424Z,7.87
2023-04-13T12:02:01.603Z,10.67
2023-04-13T12:04:41.041Z,8.37
2023-04-13T12:07:15.575Z,9.50
2023-04-13T12:09:55.955Z,9.77
2023-04-13T12:15:15.356Z,10.23
2023-04-13T12:18:00.443Z,6.57
2023-04-13T12:20:48.616Z,8.83
2023-04-13T12:23:24.490Z,7.57
2023-04-13T12:25:57.955Z,5.73
2023-04-13T12:28:34.884Z,8.83
2023-04-13T12:31:12.548Z,9.20
2023-04-13T12:33:39.939Z,6.77
2023-04-13T12:36:11.262Z,9.77
2023-04-13T12:38:38.298Z,6.70
2023-04-13T12:41:09.399Z,6.27
2023-04-13T12:43:36.282Z,8.30
2023-04-13T12:46:02.952Z,9.20
2023-04-13T12:48:30.823Z,8.63
2023-04-13T12:50:57.973Z,8.13
2023-04-13T12:53:24.872Z,9.83
2023-04-13T12:55:51.572Z,4.30
2023-04-13T12:58:18.259Z,11.03
2023-04-13T13:00:44.957Z,5.27
2023-04-13T13:03:14.567Z,8.83
2023-04-13T13:05:42.278Z,6.83
2023-04-13T13:08:09.339Z,8.13
2023-04-13T13:10:37.396Z,8.27
2023-04-13T13:13:04.661Z,5.77
2023-04-13T13:15:32.513Z,4.53
2023-04-13T13:18:03.969Z,7.53
2023-04-13T13:20:30.994Z,5.63
2023-04-13T13:22:58.013Z,4.77
2023-04-13T13:25:25.028Z,6.03
2023-04-13T13:28:10.324Z,6.03
2023-04-13T13:30:38.914Z,6.27
2023-04-13T13:33:05.934Z,4.70
2023-04-13T13:35:33.974Z,11.30
2023-04-13T13:38:01.734Z,6.90
2023-04-13T13:40:28.625Z,6.60
2023-04-13T13:42:55.592Z,5.83
2023-04-13T13:45:22.577Z,5.67
2023-04-13T13:47:53.693Z,5.87
2023-04-13T13:50:21.750Z,6.37
2023-04-13T13:53:02.430Z,5.57
2023-04-13T13:55:30.946Z,5.80
2023-04-13T13:57:57.886Z,5.77
2023-04-13T14:00:25.703Z,5.90
2023-04-13T14:02:52.703Z,6.93
2023-04-13T14:05:21.757Z,6.97
2023-04-13T14:07:48.561Z,5.77
2023-04-13T14:10:15.373Z,6.13
2023-04-13T14:12:47.457Z,5.97
2023-04-13T14:15:16.215Z,5.87
2023-04-13T14:17:43.050Z,7.10
2023-04-13T14:20:11.695Z,9.03
2023-04-13T14:22:39.776Z,4.83
2023-04-13T14:25:11.741Z,5.13
2023-04-13T14:27:38.900Z,5.47
2023-04-13T14:30:06.393Z,7.03
2023-04-13T14:32:33.400Z,5.73
2023-04-13T14:35:00.702Z,5.20
2023-04-13T14:37:28.112Z,7.10
2023-04-13T14:39:55.639Z,5.20
2023-04-13T14:42:24.538Z,7.00
2023-04-13T14:44:52.043Z,6.37
2023-04-13T14:47:19.509Z,6.10
2023-04-13T14:49:47.225Z,7.13
2023-04-13T14:52:15.120Z,6.67
2023-04-13T14:54:42.426Z,6.17
2023-04-13T14:57:10.578Z,7.10
2023-04-13T14:59:37.515Z,6.50
2023-04-13T15:02:04.780Z,9.53
2023-04-13T15:04:32.320Z,5.60
2023-04-13T15:07:00.214Z,7.83
2023-04-13T15:09:27.367Z,6.97
2023-04-13T15:11:54.093Z,5.83
2023-04-13T15:14:21.077Z,4.90
2023-04-13T15:16:47.979Z,7.40
2023-04-13T15:19:14.688Z,8.60
2023-04-13T15:21:41.734Z,10.10
2023-04-13T15:24:09.228Z,5.43
2023-04-13T15:26:40.548Z,8.20
2023-04-13T15:29:10.384Z,9.93
2023-04-13T15:31:38.841Z,6.03
2023-04-13T15:34:08.326Z,7.57
2023-04-13T15:36:38.370Z,6.97
2023-04-13T15:39:05.136Z,7.30
2023-04-13T15:41:31.990Z,7.70
2023-04-13T15:44:03.165Z,7.50
2023-04-13T15:46:30.076Z,6.53
2023-04-13T15:48:56.825Z,5.50
2023-04-13T15:51:23.639Z,4.10
2023-04-13T15:53:50.348Z,6.30
2023-04-13T15:56:17.512Z,4.73
2023-04-13T15:58:44.428Z,5.37
2023-04-13T16:01:12.052Z,4.30
2023-04-13T16:03:40.470Z,5.43
2023-04-13T16:06:07.830Z,5.90
2023-04-13T16:08:34.528Z,6.77
2023-04-13T16:11:01.438Z,5.17
2023-04-13T16:13:46.830Z,7.63
2023-04-13T16:16:15.410Z,5.17
2023-04-13T16:18:42.254Z,4.93
2023-04-13T16:21:10.788Z,6.10
2023-04-13T16:23:38.166Z,7.10
2023-04-13T16:26:05.087Z,12.23
2023-04-13T16:28:31.812Z,7.63
2023-04-13T16:30:59.066Z,8.43
2023-04-13T16:33:26.019Z,6.53
2023-04-13T16:35:52.713Z,5.83
2023-04-13T16:38:19.461Z,7.17
2023-04-13T16:40:46.282Z,5.33
2023-04-13T16:43:13.068Z,5.57
2023-04-13T16:45:39.872Z,5.10
2023-04-13T16:48:06.707Z,5.47
2023-04-13T16:50:33.455Z,8.37
2023-04-13T16:53:00.188Z,7.80
2023-04-13T16:55:28.603Z,7.53
2023-04-13T16:57:55.865Z,5.60
2023-04-13T17:00:23.199Z,5.97
2023-04-13T17:02:50.209Z,4.80
2023-04-13T17:05:17.253Z,5.93
2023-04-13T17:07:44.675Z,5.07
2023-04-13T17:10:13.173Z,5.67
2023-04-13T17:12:40.358Z,6.10
2023-04-13T17:15:07.790Z,11.40
2023-04-13T17:17:35.055Z,5.80
2023-04-13T17:20:02.105Z,9.23
2023-04-13T17:22:28.985Z,8.87
2023-04-13T17:24:56.045Z,6.23
2023-04-13T17:27:22.810Z,7.40
2023-04-13T17:29:49.909Z,9.13
2023-04-13T17:32:16.932Z,6.97
2023-04-13T17:34:44.715Z,6.67
2023-04-13T17:37:11.835Z,4.27
2023-04-13T17:39:42.252Z,8.97
2023-04-13T17:42:09.610Z,14.50
2023-04-13T17:44:36.990Z,3.73
2023-04-13T17:47:03.795Z,11.90
2023-04-13T17:49:30.717Z,4.00
2023-04-13T17:54:29.798Z,6.27
2023-04-13T17:56:56.638Z,8.43
2023-04-13T17:59:23.519Z,7.37
2023-04-13T18:01:54.333Z,4.17
2023-04-13T18:04:21.472Z,5.57
2023-04-13T18:06:48.655Z,3.13
2023-04-13T18:09:15.667Z,6.30
2023-04-13T18:11:42.410Z,4.60
2023-04-13T18:14:11.965Z,4.97
2023-04-13T18:16:39.039Z,4.83
2023-04-13T18:19:06.101Z,5.70
2023-04-13T18:21:32.935Z,6.13
2023-04-13T18:24:03.085Z,8.23
2023-04-13T18:26:30.041Z,10.77
2023-04-13T18:28:56.847Z,8.67
2023-04-13T18:31:23.684Z,9.93
2023-04-13T18:33:50.611Z,12.40
2023-04-13T18:36:18.521Z,12.23
2023-04-13T18:38:46.247Z,12.23
2023-04-13T18:41:13.440Z,12.90
2023-04-13T18:43:40.607Z,10.57
2023-04-13T18:46:08.044Z,12.27
2023-04-13T18:48:35.822Z,12.63
2023-04-13T18:51:03.390Z,13.47
2023-04-13T18:53:31.002Z,13.37
2023-04-13T18:55:58.786Z,11.53
2023-04-13T18:58:25.622Z,11.57
2023-04-13T19:00:52.313Z,10.43
2023-04-13T19:03:19.451Z,13.57
2023-04-13T19:05:47.150Z,10.37
2023-04-13T19:08:15.234Z,10.47
2023-04-13T19:10:43.200Z,12.87
2023-04-13T19:13:10.135Z,10.30
2023-04-13T19:15:37.296Z,11.33
2023-04-13T19:18:04.416Z,12.20
2023-04-13T19:20:31.425Z,7.63
2023-04-13T19:22:58.166Z,7.50
2023-04-13T19:25:24.999Z,7.73
2023-04-13T19:27:51.814Z,5.23
2023-04-13T19:30:19.661Z,6.57
2023-04-13T19:32:48.840Z,6.17
2023-04-13T19:35:16.099Z,6.17
2023-04-13T19:37:42.944Z,8.20
2023-04-13T19:40:10.282Z,6.80
2023-04-13T19:42:37.544Z,7.63
2023-04-13T19:45:04.638Z,7.43
2023-04-13T19:47:31.524Z,9.83
2023-04-13T19:49:58.290Z,7.73
2023-04-13T19:52:25.287Z,6.40
2023-04-13T19:54:52.191Z,6.80
2023-04-13T19:57:19.208Z,5.37
2023-04-13T19:59:46.192Z,5.43
2023-04-13T20:02:13.151Z,8.03
2023-04-13T20:04:40.593Z,7.17
2023-04-13T20:07:07.975Z,8.53
2023-04-13T20:09:34.709Z,8.00
2023-04-13T20:12:01.597Z,6.10
2023-04-13T20:14:28.326Z,7.17
2023-04-13T20:16:55.100Z,7.03
2023-04-13T20:19:23.735Z,4.80
2023-04-13T20:21:51.424Z,4.50
2023-04-13T20:24:18.683Z,5.80
2023-04-13T20:26:46.925Z,8.60
2023-04-13T20:29:16.701Z,9.03
2023-04-13T20:31:43.436Z,6.33
2023-04-13T20:34:13.332Z,7.83
2023-04-13T20:36:40.678Z,7.07
2023-04-13T20:39:09.403Z,8.20
2023-04-13T20:41:36.766Z,6.27
2023-04-13T20:44:03.795Z,8.30
2023-04-13T20:46:37.606Z,5.27
2023-04-13T20:49:05.162Z,5.57
2023-04-13T20:51:33.388Z,7.50
2023-04-13T20:54:03.172Z,7.03
2023-04-13T20:56:30.123Z,6.80
2023-04-13T20:58:58.001Z,5.37
2023-04-13T21:01:25.443Z,4.33
2023-04-13T21:03:52.844Z,5.13
2023-04-13T21:06:19.930Z,5.90
2023-04-13T21:08:46.694Z,2.97
2023-04-13T21:11:13.494Z,2.73
2023-04-13T21:13:40.452Z,6.97
2023-04-13T21:16:08.984Z,5.17
2023-04-13T21:18:36.738Z,6.67
2023-04-13T21:21:06.632Z,3.77
2023-04-13T21:23:36.405Z,9.37
2023-04-13T21:26:03.883Z,4.33
2023-04-13T21:28:30.701Z,3.67
2023-04-13T21:30:57.413Z,2.93
2023-04-13T21:33:24.142Z,2.73
2023-04-13T21:35:50.835Z,1.63
2023-04-13T21:38:17.585Z,3.43
2023-04-13T21:40:44.228Z,2.70
2023-04-13T21:43:10.908Z,3.33
2023-04-13T21:45:37.690Z,2.83
2023-04-13T21:48:04.762Z,3.90
2023-04-13T21:50:31.450Z,5.20
2023-04-13T21:52:58.126Z,2.07
2023-04-13T21:55:24.973Z,3.17
2023-04-13T21:57:51.832Z,2.20
2023-04-13T22:00:19.586Z,2.90
2023-04-13T22:02:46.584Z,3.50
2023-04-13T22:05:13.422Z,2.37
2023-04-13T22:07:43.378Z,4.07
2023-04-13T22:10:10.861Z,2.90
2023-04-13T22:12:38.018Z,2.43
2023-04-13T22:15:05.161Z,3.63
2023-04-13T22:17:32.264Z,5.07
2023-04-13T22:19:59.115Z,4.33
2023-04-13T22:22:25.846Z,3.20
2023-04-13T22:24:53.320Z,4.77
2023-04-13T22:27:20.518Z,4.87
2023-04-13T22:29:47.859Z,3.57
2023-04-13T22:32:14.969Z,2.93
2023-04-13T22:34:41.874Z,3.43
2023-04-13T22:37:10.339Z,3.07
2023-04-13T22:39:37.333Z,3.17
2023-04-13T22:42:04.310Z,2.97
2023-04-13T22:44:35.317Z,2.83
2023-04-13T22:47:02.881Z,4.57
2023-04-13T22:49:31.077Z,4.10
2023-04-13T22:51:57.856Z,4.43
2023-04-13T22:54:24.586Z,5.17
2023-04-13T22:56:52.733Z,4.87
2023-04-13T22:59:19.472Z,5.47
2023-04-13T23:01:46.586Z,4.57
2023-04-13T23:04:15.878Z,4.10
2023-04-13T23:06:43.089Z,5.33
2023-04-13T23:09:09.767Z,6.07
2023-04-13T23:11:36.626Z,6.20
2023-04-13T23:14:03.460Z,6.87
2023-04-13T23:16:30.438Z,5.73
2023-04-13T23:18:57.235Z,4.93
2023-04-13T23:21:23.967Z,6.83
2023-04-13T23:23:50.817Z,5.37
2023-04-13T23:26:17.473Z,8.03
2023-04-13T23:28:45.819Z,6.07
2023-04-13T23:31:12.539Z,5.53
2023-04-13T23:33:39.530Z,5.77
2023-04-13T23:36:06.993Z,7.10
2023-04-13T23:38:33.723Z,4.63
2023-04-13T23:41:00.597Z,7.27
2023-04-13T23:43:27.288Z,5.43
2023-04-13T23:45:54.240Z,4.27
2023-04-13T23:48:22.837Z,4.67
2023-04-13T23:50:49.675Z,5.23
2023-04-13T23:53:19.883Z,5.37
2023-04-13T23:55:47.520Z,5.37
2023-04-13T23:58:14.290Z,6.40
